createdAt,value
2018-04-19T00:01:21.595Z,11.60
2018-04-19T00:03:49.822Z,10.95
2018-04-19T00:06:17.282Z,12.70
2018-04-19T00:08:45.505Z,10.55
2018-04-19T00:11:13.046Z,12.50
2018-04-19T00:13:40.489Z,11.73
2018-04-19T00:16:07.973Z,10.63
2018-04-19T00:18:35.479Z,11.80
2018-04-19T00:21:02.936Z,12.10
2018-04-19T00:23:30.428Z,10.35
2018-04-19T00:25:57.898Z,12.07
2018-04-19T00:28:25.358Z,11.23
2018-04-19T00:30:52.883Z,12.10
2018-04-19T00:33:20.323Z,12.03
2018-04-19T00:35:49.314Z,11.87
2018-04-19T00:38:16.777Z,11.33
2018-04-19T00:40:45.027Z,11.17
2018-04-19T00:43:13.030Z,12.90
2018-04-19T00:45:41.287Z,11.87
2018-04-19T00:48:08.746Z,13.37
2018-04-19T00:50:36.195Z,13.30
2018-04-19T00:53:09.621Z,12.67
2018-04-19T00:55:37.834Z,11.90
2018-04-19T00:58:05.324Z,12.70
2018-04-19T01:00:32.837Z,11.30
2018-04-19T01:03:00.338Z,12.53
2018-04-19T01:05:27.796Z,11.90
2018-04-19T01:07:55.241Z,15.50
2018-04-19T01:10:22.754Z,11.73
2018-04-19T01:12:50.944Z,12.27
2018-04-19T01:15:18.398Z,10.90
2018-04-19T01:17:45.927Z,11.37
2018-04-19T01:20:13.374Z,13.00
2018-04-19T01:22:40.839Z,13.00
2018-04-19T01:25:08.330Z,14.33
2018-04-19T01:27:35.832Z,14.40
2018-04-19T01:30:04.255Z,14.85
2018-04-19T01:32:31.719Z,14.10
2018-04-19T01:34:59.196Z,14.55
2018-04-19T01:37:26.695Z,15.15
2018-04-19T01:39:54.146Z,16.10
2018-04-19T01:42:22.383Z,15.60
2018-04-19T01:44:49.873Z,14.13
2018-04-19T01:47:18.134Z,17.70
2018-04-19T01:49:45.582Z,14.53
2018-04-19T01:52:13.043Z,15.30
2018-04-19T01:54:40.557Z,15.00
2018-04-19T01:57:08.047Z,20.10
2018-04-19T01:59:35.529Z,13.43
2018-04-19T02:02:02.991Z,13.93
2018-04-19T02:04:31.238Z,12.83
2018-04-19T02:06:58.691Z,14.37
2018-04-19T02:09:26.179Z,13.60
2018-04-19T02:11:54.398Z,13.83
2018-04-19T02:14:21.867Z,12.87
2018-04-19T02:16:49.311Z,13.80
2018-04-19T02:19:16.811Z,13.67
2018-04-19T02:21:44.211Z,13.83
2018-04-19T02:24:11.698Z,14.87
2018-04-19T02:26:39.161Z,14.80
2018-04-19T02:29:06.595Z,14.30
2018-04-19T02:31:34.119Z,14.60
2018-04-19T02:34:01.567Z,14.57
2018-04-19T02:36:29.007Z,15.17
2018-04-19T02:38:56.855Z,15.83
2018-04-19T02:41:24.342Z,14.80
2018-04-19T02:43:52.603Z,20.00
2018-04-19T02:46:20.055Z,16.43
2018-04-19T02:48:47.580Z,18.10
2018-04-19T02:51:15.047Z,16.05
2018-04-19T02:53:42.533Z,17.87
2018-04-19T02:56:10.794Z,15.93
2018-04-19T02:58:38.257Z,17.13
2018-04-19T03:01:05.736Z,15.53
2018-04-19T03:03:33.970Z,16.00
2018-04-19T03:06:01.416Z,16.70
2018-04-19T03:08:28.903Z,16.35
2018-04-19T03:10:56.363Z,14.63
2018-04-19T03:13:23.908Z,14.40
2018-04-19T03:15:51.357Z,16.40
2018-04-19T03:18:18.882Z,14.90
2018-04-19T03:20:46.367Z,16.30
2018-04-19T03:23:13.827Z,15.97
2018-04-19T03:25:41.364Z,17.00
2018-04-19T03:28:08.823Z,16.40
2018-04-19T03:30:36.275Z,17.00
2018-04-19T03:33:03.754Z,18.10
2018-04-19T03:35:31.655Z,15.85
2018-04-19T03:37:59.095Z,15.83
2018-04-19T03:40:26.542Z,18.53
2018-04-19T03:42:54.032Z,17.70
2018-04-19T03:45:21.523Z,17.90
2018-04-19T03:47:49.011Z,16.47
2018-04-19T03:50:16.459Z,16.80
2018-04-19T03:52:43.919Z,16.45
2018-04-19T03:55:11.395Z,16.53
2018-04-19T03:57:39.824Z,16.30
2018-04-19T04:00:07.453Z,16.70
2018-04-19T04:02:34.956Z,17.30
2018-04-19T04:05:02.486Z,16.93
2018-04-19T04:07:29.990Z,16.80
2018-04-19T04:09:57.492Z,19.15
2018-04-19T04:12:24.958Z,19.40
2018-04-19T04:14:52.434Z,17.70
2018-04-19T04:17:31.807Z,19.90
2018-04-19T04:23:30.739Z,18.80
2018-04-19T04:25:59.040Z,23.10
2018-04-19T04:28:26.540Z,21.10
2018-04-19T04:30:53.991Z,19.07
2018-04-19T04:33:21.468Z,18.90
2018-04-19T04:35:49.148Z,20.47
2018-04-19T04:38:17.429Z,24.75
2018-04-19T04:40:44.934Z,19.87
2018-04-19T04:43:12.392Z,20.00
2018-04-19T04:45:39.863Z,19.35
2018-04-19T04:48:07.739Z,22.47
2018-04-19T04:50:35.175Z,19.73
2018-04-19T04:53:02.649Z,22.87
2018-04-19T04:55:30.144Z,19.17
2018-04-19T04:57:57.583Z,25.13
2018-04-19T05:00:25.810Z,22.00
2018-04-19T05:02:53.269Z,21.55
2018-04-19T05:05:20.873Z,19.23
2018-04-19T05:07:49.127Z,20.60
2018-04-19T05:10:16.570Z,17.85
2018-04-19T05:12:44.058Z,21.25
2018-04-19T05:15:12.286Z,18.67
2018-04-19T05:17:39.791Z,20.60
2018-04-19T05:20:08.035Z,19.25
2018-04-19T05:22:36.279Z,19.20
2018-04-19T05:25:04.173Z,25.90
2018-04-19T05:27:32.064Z,18.30
2018-04-19T05:32:31.293Z,19.00
2018-04-19T05:34:59.551Z,17.77
2018-04-19T05:37:27.013Z,20.07
2018-04-19T05:39:55.290Z,18.50
2018-04-19T05:42:23.563Z,17.67
2018-04-19T05:44:51.774Z,18.47
2018-04-19T05:47:19.242Z,19.57
2018-04-19T05:49:46.775Z,19.10
2018-04-19T05:52:14.302Z,18.70
2018-04-19T06:02:02.966Z,18.93
2018-04-19T06:04:31.563Z,16.50
2018-04-19T06:06:59.088Z,17.87
2018-04-19T06:09:26.606Z,15.53
2018-04-19T06:11:54.875Z,15.87
2018-04-19T06:14:23.141Z,15.47
2018-04-19T06:16:50.666Z,14.00
2018-04-19T06:19:18.151Z,16.50
2018-04-19T06:21:45.676Z,16.80
2018-04-19T06:24:13.146Z,14.47
2018-04-19T06:26:40.653Z,16.93
2018-04-19T06:29:08.907Z,15.97
2018-04-19T06:31:36.436Z,18.33
2018-04-19T06:34:03.983Z,15.43
2018-04-19T06:36:31.501Z,17.47
2018-04-19T06:38:59.022Z,15.37
2018-04-19T06:41:26.550Z,15.50
2018-04-19T06:43:54.754Z,16.60
2018-04-19T06:46:22.226Z,21.40
2018-04-19T06:48:49.704Z,16.23
2018-04-19T06:51:18.017Z,16.47
2018-04-19T06:56:39.039Z,15.93
2018-04-19T06:59:06.518Z,17.20
2018-04-19T07:01:33.998Z,16.90
2018-04-19T07:04:01.438Z,16.63
2018-04-19T07:06:29.020Z,16.40
2018-04-19T07:08:56.450Z,19.03
2018-04-19T07:11:23.968Z,21.83
2018-04-19T07:13:51.423Z,17.67
2018-04-19T07:16:18.863Z,16.13
2018-04-19T07:18:47.070Z,20.03
2018-04-19T07:21:14.514Z,15.93
2018-04-19T07:23:41.967Z,17.20
2018-04-19T07:26:09.387Z,15.60
2018-04-19T07:28:36.821Z,14.57
2018-04-19T07:31:04.254Z,11.20
2018-04-19T07:33:31.708Z,13.33
2018-04-19T07:35:59.140Z,13.47
2018-04-19T07:38:26.574Z,11.67
2018-04-19T07:40:54.790Z,15.40
2018-04-19T07:43:22.233Z,16.83
2018-04-19T07:45:49.670Z,14.00
2018-04-19T07:48:17.885Z,15.93
2018-04-19T07:50:45.331Z,11.60
2018-04-19T07:53:12.758Z,11.63
2018-04-19T07:55:40.234Z,14.73
2018-04-19T07:58:07.630Z,13.70
2018-04-19T08:00:35.074Z,12.00
2018-04-19T08:03:02.524Z,11.53
2018-04-19T08:05:30.004Z,13.17
2018-04-19T08:07:57.408Z,11.37
2018-04-19T08:10:24.829Z,12.63
2018-04-19T08:12:52.263Z,10.97
2018-04-19T08:15:19.691Z,9.63
2018-04-19T08:17:47.123Z,9.40
2018-04-19T08:20:14.549Z,10.73
2018-04-19T08:22:41.990Z,10.13
2018-04-19T08:25:09.431Z,11.80
2018-04-19T08:27:36.874Z,10.37
2018-04-19T08:30:04.318Z,11.93
2018-04-19T08:32:31.750Z,9.27
2018-04-19T08:34:59.947Z,11.00
2018-04-19T08:37:27.370Z,9.30
2018-04-19T08:39:55.577Z,12.80
2018-04-19T08:42:23.019Z,9.83
2018-04-19T08:44:50.445Z,8.90
2018-04-19T08:57:05.877Z,9.00
2018-04-19T08:59:33.352Z,8.20
2018-04-19T09:02:01.552Z,9.53
2018-04-19T09:04:28.985Z,10.03
2018-04-19T09:06:57.177Z,8.90
2018-04-19T09:09:24.610Z,9.03
2018-04-19T09:11:52.816Z,14.40
2018-04-19T09:14:20.241Z,13.73
2018-04-19T09:16:48.438Z,9.27
2018-04-19T09:19:15.865Z,7.97
2018-04-19T09:21:44.077Z,7.90
2018-04-19T09:24:11.512Z,8.77
2018-04-19T09:26:38.961Z,6.90
2018-04-19T09:29:07.179Z,7.93
2018-04-19T09:31:34.694Z,8.30
2018-04-19T09:34:02.918Z,9.73
2018-04-19T09:36:30.341Z,8.80
2018-04-19T09:38:57.770Z,11.37
2018-04-19T09:41:25.198Z,8.23
2018-04-19T09:43:52.638Z,10.63
2018-04-19T09:46:20.069Z,7.70
2018-04-19T09:48:47.505Z,8.50
2018-04-19T09:51:15.695Z,9.90
2018-04-19T09:53:43.124Z,8.73
2018-04-19T09:56:11.310Z,8.40
2018-04-19T09:58:38.748Z,7.90
2018-04-19T10:01:08.973Z,9.60
2018-04-19T10:03:42.890Z,15.13
2018-04-19T10:06:11.099Z,8.30
2018-04-19T10:08:38.530Z,7.80
2018-04-19T10:11:05.958Z,8.60
2018-04-19T10:13:33.405Z,6.57
2018-04-19T10:16:00.904Z,7.87
2018-04-19T10:18:28.261Z,10.97
2018-04-19T10:20:55.701Z,7.47
2018-04-19T10:23:23.908Z,7.00
2018-04-19T10:25:52.111Z,6.73
2018-04-19T10:28:19.537Z,7.70
2018-04-19T10:30:46.978Z,6.60
2018-04-19T10:33:14.394Z,7.67
2018-04-19T10:35:41.835Z,7.80
2018-04-19T10:38:09.271Z,10.00
2018-04-19T10:40:36.715Z,8.03
2018-04-19T10:43:04.150Z,7.53
2018-04-19T10:45:32.347Z,7.47
2018-04-19T10:47:59.771Z,7.70
2018-04-19T10:50:27.977Z,9.33
2018-04-19T10:52:55.405Z,8.93
2018-04-19T10:55:22.851Z,7.50
2018-04-19T10:57:51.062Z,9.23
2018-04-19T11:00:18.506Z,7.87
2018-04-19T11:02:45.933Z,10.73
2018-04-19T11:05:13.365Z,8.20
2018-04-19T11:07:40.807Z,8.57
2018-04-19T11:10:08.242Z,8.63
2018-04-19T11:12:35.673Z,9.57
2018-04-19T11:15:03.119Z,10.93
2018-04-19T11:17:31.332Z,6.90
2018-04-19T11:19:58.768Z,6.77
2018-04-19T11:22:26.294Z,9.73
2018-04-19T11:24:53.701Z,8.33
2018-04-19T11:27:21.125Z,8.77
2018-04-19T11:29:48.558Z,8.10
2018-04-19T11:32:16.015Z,10.33
2018-04-19T11:34:43.450Z,8.37
2018-04-19T11:37:10.893Z,8.40
2018-04-19T11:39:38.331Z,9.30
2018-04-19T11:42:05.800Z,8.10
2018-04-19T11:44:33.231Z,10.53
2018-04-19T11:47:00.666Z,9.90
2018-04-19T11:49:28.863Z,8.77
2018-04-19T11:51:56.284Z,7.53
2018-04-19T11:54:24.481Z,6.80
2018-04-19T11:56:51.910Z,9.20
2018-04-19T11:59:19.349Z,7.70
2018-04-19T12:01:46.782Z,7.77
2018-04-19T12:04:14.210Z,8.43
2018-04-19T12:06:41.642Z,7.40
2018-04-19T12:09:09.839Z,13.63
2018-04-19T12:11:37.261Z,9.67
2018-04-19T12:14:04.688Z,9.00
2018-04-19T12:16:32.509Z,9.23
2018-04-19T12:18:59.929Z,8.23
2018-04-19T12:21:27.373Z,7.17
2018-04-19T12:23:54.814Z,12.93
2018-04-19T12:26:22.253Z,8.90
2018-04-19T12:28:49.674Z,7.23
2018-04-19T12:31:17.873Z,7.50
2018-04-19T12:33:45.302Z,8.30
2018-04-19T12:36:12.730Z,7.93
2018-04-19T12:38:40.158Z,10.17
2018-04-19T12:41:07.605Z,6.37
2018-04-19T12:43:35.034Z,10.70
2018-04-19T12:46:03.225Z,9.73
2018-04-19T12:48:30.659Z,9.43
2018-04-19T12:50:58.864Z,11.20
2018-04-19T12:53:26.286Z,9.30
2018-04-19T12:55:54.486Z,7.50
2018-04-19T12:58:21.913Z,8.27
2018-04-19T13:00:50.115Z,8.60
2018-04-19T13:03:18.306Z,6.70
2018-04-19T13:05:45.729Z,6.67
2018-04-19T13:08:13.207Z,9.00
2018-04-19T13:10:44.454Z,10.80
2018-04-19T13:13:16.193Z,10.17
2018-04-19T13:15:44.098Z,8.40
2018-04-19T13:18:11.991Z,8.00
2018-04-19T13:20:39.399Z,10.80
2018-04-19T13:23:07.604Z,9.00
2018-04-19T13:25:35.021Z,8.20
2018-04-19T13:28:02.458Z,10.13
2018-04-19T13:30:29.879Z,8.03
2018-04-19T13:32:57.314Z,9.93
2018-04-19T13:35:24.746Z,6.80
2018-04-19T13:37:52.178Z,8.73
2018-04-19T13:40:19.623Z,8.87
2018-04-19T13:42:47.058Z,9.03
2018-04-19T13:45:14.492Z,7.10
2018-04-19T13:47:41.928Z,7.10
2018-04-19T13:50:10.148Z,10.97
2018-04-19T13:52:37.587Z,7.33
2018-04-19T13:55:05.030Z,6.83
2018-04-19T13:57:33.242Z,10.03
2018-04-19T14:00:00.678Z,8.40
2018-04-19T14:02:28.131Z,6.90
2018-04-19T14:04:55.559Z,6.80
2018-04-19T14:07:23.857Z,9.63
2018-04-19T14:09:51.456Z,6.30
2018-04-19T14:12:18.978Z,6.50
2018-04-19T14:14:46.452Z,11.63
2018-04-19T14:17:13.943Z,7.03
2018-04-19T14:19:41.451Z,7.37
2018-04-19T14:22:08.930Z,8.37
2018-04-19T14:24:40.504Z,7.73
2018-04-19T14:27:08.786Z,6.80
2018-04-19T14:29:36.285Z,6.70
2018-04-19T14:32:03.799Z,12.73
2018-04-19T14:34:31.281Z,8.80
2018-04-19T14:36:58.707Z,9.00
2018-04-19T14:39:26.158Z,7.53
2018-04-19T14:41:53.664Z,7.10
2018-04-19T14:44:21.155Z,9.10
2018-04-19T14:46:48.577Z,9.73
2018-04-19T14:49:16.812Z,10.67
2018-04-19T14:51:44.222Z,10.30
2018-04-19T14:54:11.649Z,10.47
2018-04-19T14:56:39.866Z,12.83
2018-04-19T14:59:07.306Z,10.83
2018-04-19T15:01:34.726Z,9.77
2018-04-19T15:04:02.195Z,7.40
2018-04-19T15:06:30.382Z,8.77
2018-04-19T15:08:58.587Z,9.43
2018-04-19T15:11:26.013Z,8.50
2018-04-19T15:13:53.453Z,13.80
2018-04-19T15:16:21.651Z,10.47
2018-04-19T15:18:49.090Z,8.00
2018-04-19T15:21:17.716Z,12.00
2018-04-19T15:23:45.206Z,11.97
2018-04-19T15:26:12.730Z,9.37
2018-04-19T15:33:34.423Z,8.27
2018-04-19T15:36:01.939Z,10.70
2018-04-19T15:38:29.451Z,7.93
2018-04-19T15:40:56.889Z,9.23
2018-04-19T15:43:24.330Z,7.97
2018-04-19T15:45:51.766Z,8.00
2018-04-19T15:48:19.199Z,10.47
2018-04-19T15:50:46.630Z,7.07
2018-04-19T15:53:14.066Z,8.83
2018-04-19T15:55:41.511Z,11.13
2018-04-19T15:58:08.944Z,6.87
2018-04-19T16:00:36.389Z,17.10
2018-04-19T16:03:03.826Z,6.47
2018-04-19T16:05:32.037Z,10.47
2018-04-19T16:07:59.680Z,7.07
2018-04-19T16:10:27.110Z,6.90
2018-04-19T16:12:55.318Z,5.80
2018-04-19T16:15:22.762Z,9.50
2018-04-19T16:17:50.186Z,9.90
2018-04-19T16:20:17.624Z,6.90
2018-04-19T16:22:45.062Z,10.33
2018-04-19T16:25:12.900Z,5.80
2018-04-19T16:27:40.326Z,7.13
2018-04-19T16:30:08.531Z,6.83
2018-04-19T16:32:35.958Z,9.17
2018-04-19T16:35:03.417Z,9.63
2018-04-19T16:37:31.698Z,6.53
2018-04-19T16:39:59.138Z,9.17
2018-04-19T16:42:26.702Z,8.53
2018-04-19T16:44:54.149Z,4.67
2018-04-19T16:47:21.615Z,6.57
2018-04-19T16:49:49.189Z,6.10
2018-04-19T16:52:17.447Z,8.73
2018-04-19T16:54:44.923Z,9.47
2018-04-19T16:57:13.198Z,8.97
2018-04-19T16:59:40.710Z,7.70
2018-04-19T17:02:08.251Z,6.20
2018-04-19T17:04:36.502Z,8.60
2018-04-19T17:07:04.711Z,7.30
2018-04-19T17:09:32.172Z,5.33
2018-04-19T17:11:59.678Z,5.93
2018-04-19T17:14:27.905Z,5.83
2018-04-19T17:16:55.394Z,6.40
2018-04-19T17:19:22.920Z,7.80
2018-04-19T17:21:50.414Z,7.70
2018-04-19T17:24:17.830Z,5.77
2018-04-19T17:26:45.368Z,11.80
2018-04-19T17:29:12.874Z,5.00
2018-04-19T17:31:40.362Z,5.53
2018-04-19T17:34:08.657Z,9.97
2018-04-19T17:39:03.905Z,12.77
2018-04-19T17:41:31.420Z,7.90
2018-04-19T17:56:14.902Z,7.33
2018-04-19T17:58:42.404Z,7.10
2018-04-19T18:01:09.923Z,7.77
2018-04-19T18:03:37.390Z,8.23
2018-04-19T18:06:04.857Z,9.17
2018-04-19T18:08:33.167Z,9.97
2018-04-19T18:11:00.659Z,7.03
2018-04-19T18:13:28.109Z,6.53
2018-04-19T18:15:55.630Z,10.07
2018-04-19T18:18:23.930Z,9.33
2018-04-19T18:20:51.392Z,8.73
2018-04-19T18:23:18.874Z,8.47
2018-04-19T18:25:46.655Z,8.93
2018-04-19T18:28:14.174Z,11.77
2018-04-19T18:30:41.641Z,7.87
2018-04-19T18:33:09.122Z,9.13
2018-04-19T18:35:36.613Z,10.17
2018-04-19T18:38:04.873Z,7.53
2018-04-19T18:40:32.696Z,7.93
2018-04-19T18:43:00.175Z,16.37
2018-04-19T18:45:27.611Z,13.63
2018-04-19T18:47:55.131Z,8.20
2018-04-19T18:50:22.558Z,13.13
2018-04-19T18:52:50.083Z,10.33
2018-04-19T18:55:17.595Z,8.03
2018-04-19T18:57:45.859Z,10.40
2018-04-19T19:00:13.375Z,9.50
2018-04-19T19:02:40.862Z,8.70
2018-04-19T19:05:08.477Z,9.03
2018-04-19T19:07:36.015Z,10.87
2018-04-19T19:10:03.535Z,8.93
2018-04-19T19:12:31.018Z,12.53
2018-04-19T19:15:02.854Z,13.33
2018-04-19T19:17:42.284Z,12.03
2018-04-19T19:20:11.466Z,8.13
2018-04-19T19:22:38.971Z,11.00
2018-04-19T19:25:06.482Z,6.97
2018-04-19T19:27:33.995Z,8.43
2018-04-19T19:30:02.204Z,6.50
2018-04-19T19:32:29.668Z,7.10
2018-04-19T19:34:57.153Z,8.83
2018-04-19T19:37:25.081Z,8.90
2018-04-19T19:39:52.657Z,10.50
2018-04-19T19:42:20.828Z,8.53
2018-04-19T19:44:48.403Z,8.50
2018-04-19T19:47:16.714Z,8.20
2018-04-19T19:49:44.622Z,7.70
2018-04-19T19:52:12.143Z,9.63
2018-04-19T19:54:40.376Z,6.80
2018-04-19T19:57:07.908Z,8.80
2018-04-19T19:59:35.379Z,9.83
2018-04-19T20:02:02.931Z,6.77
2018-04-19T20:04:30.511Z,9.80
2018-04-19T20:06:58.031Z,7.80
2018-04-19T20:09:25.534Z,7.33
2018-04-19T20:11:53.057Z,6.97
2018-04-19T20:14:20.545Z,7.57
2018-04-19T20:16:48.649Z,6.63
2018-04-19T20:19:16.217Z,9.90
2018-04-19T20:21:43.751Z,17.10
2018-04-19T20:24:11.260Z,7.63
2018-04-19T20:26:38.760Z,6.87
2018-04-19T20:29:06.235Z,10.90
2018-04-19T20:31:34.490Z,6.97
2018-04-19T20:34:02.038Z,6.87
2018-04-19T20:36:29.523Z,12.43
2018-04-19T20:38:57.038Z,7.67
2018-04-19T20:41:24.542Z,6.97
2018-04-19T20:43:52.823Z,7.90
2018-04-19T20:46:21.090Z,6.37
2018-04-19T20:48:48.541Z,7.23
2018-04-19T20:51:16.016Z,6.83
2018-04-19T20:53:44.255Z,7.70
2018-04-19T20:56:11.741Z,6.87
2018-04-19T20:58:40.022Z,7.80
2018-04-19T21:01:08.269Z,8.60
2018-04-19T21:03:35.768Z,8.20
2018-04-19T21:06:04.045Z,8.23
2018-04-19T21:08:31.572Z,8.80
2018-04-19T21:10:59.153Z,9.43
2018-04-19T21:13:26.582Z,7.27
2018-04-19T21:15:54.102Z,7.73
2018-04-19T21:18:21.663Z,13.97
2018-04-19T21:20:49.217Z,7.13
2018-04-19T21:23:17.489Z,8.13
2018-04-19T21:25:45.015Z,7.30
2018-04-19T21:28:12.536Z,9.13
2018-04-19T21:30:40.069Z,7.13
2018-04-19T21:33:07.556Z,5.93
2018-04-19T21:35:35.042Z,7.10
2018-04-19T21:38:03.297Z,7.53
2018-04-19T21:40:31.576Z,8.80
2018-04-19T21:42:59.842Z,8.20
2018-04-19T21:45:27.424Z,8.57
2018-04-19T21:47:55.707Z,8.43
2018-04-19T21:50:23.236Z,8.67
2018-04-19T21:52:50.734Z,11.80
2018-04-19T21:55:18.234Z,7.53
2018-04-19T21:57:45.743Z,7.13
2018-04-19T22:00:13.272Z,10.97
2018-04-19T22:02:40.825Z,7.83
2018-04-19T22:05:08.323Z,8.60
2018-04-19T22:07:36.206Z,9.67
2018-04-19T22:10:03.698Z,10.43
2018-04-19T22:12:31.211Z,8.30
2018-04-19T22:14:58.723Z,6.90
2018-04-19T22:17:26.259Z,6.80
2018-04-19T22:19:53.758Z,7.90
2018-04-19T22:22:22.034Z,20.07
2018-04-19T22:24:50.331Z,6.70
2018-04-19T22:27:17.835Z,8.40
2018-04-19T22:29:45.367Z,8.97
2018-04-19T22:32:12.880Z,9.17
2018-04-19T22:34:41.132Z,8.87
2018-04-19T22:37:08.638Z,8.73
2018-04-19T22:39:36.189Z,8.70
2018-04-19T22:42:03.647Z,8.60
2018-04-19T22:44:31.164Z,9.40
2018-04-19T22:46:58.678Z,8.23
2018-04-19T22:49:26.144Z,10.40
2018-04-19T22:51:53.662Z,8.10
2018-04-19T22:54:21.934Z,9.20
2018-04-19T22:56:50.214Z,9.10
2018-04-19T22:59:18.510Z,11.30
2018-04-19T23:01:45.992Z,7.80
2018-04-19T23:04:13.882Z,7.37
2018-04-19T23:06:41.372Z,7.87
2018-04-19T23:09:08.837Z,9.97
2018-04-19T23:11:36.284Z,11.53
2018-04-19T23:14:04.530Z,8.30
2018-04-19T23:16:32.052Z,11.27
2018-04-19T23:18:59.579Z,7.90
2018-04-19T23:21:27.861Z,11.10
2018-04-19T23:23:55.335Z,7.93
2018-04-19T23:26:22.807Z,8.40
2018-04-19T23:28:50.331Z,11.63
2018-04-19T23:31:17.814Z,7.10
2018-04-19T23:33:45.279Z,8.40
2018-04-19T23:36:12.774Z,9.57
2018-04-19T23:38:40.235Z,7.23
2018-04-19T23:41:07.687Z,7.87
2018-04-19T23:43:35.169Z,12.73
2018-04-19T23:46:03.370Z,10.00
2018-04-19T23:48:30.874Z,9.37
2018-04-19T23:50:58.342Z,7.60
2018-04-19T23:53:26.647Z,9.80
2018-04-19T23:55:54.130Z,8.20
2018-04-19T23:58:21.677Z,11.40
